sensor_id;sensor_type;location;lat;lon;timestamp;pressure;altitude;pressure_sealevel;temperature;humidity
20987;BME280;10652;50.306;8.570;2023-11-18T00:02:41;98810.41;;;0.80;100.00
20987;BME280;10652;50.306;8.570;2023-11-18T00:06:45;98807.69;;;0.52;100.00
20987;BME280;10652;50.306;8.570;2023-11-18T00:10:47;98793.91;;;0.52;100.00
20987;BME280;10652;50.306;8.570;2023-11-18T00:14:49;98804.13;;;0.31;100.00
20987;BME280;10652;50.306;8.570;2023-11-18T00:18:51;98802.41;;;0.30;100.00
20987;BME280;10652;50.306;8.570;2023-11-18T00:22:55;98818.81;;;0.36;100.00
20987;BME280;10652;50.306;8.570;2023-11-18T00:26:57;98814.50;;;0.35;100.00
20987;BME280;10652;50.306;8.570;2023-11-18T00:30:59;98799.00;;;0.35;100.00
20987;BME280;10652;50.306;8.570;2023-11-18T00:35:03;98811.03;;;0.33;100.00
20987;BME280;10652;50.306;8.570;2023-11-18T00:39:08;98802.47;;;0.43;100.00
20987;BME280;10652;50.306;8.570;2023-11-18T00:43:10;98812.75;;;0.37;100.00
20987;BME280;10652;50.306;8.570;2023-11-18T00:47:12;98808.38;;;0.24;100.00
20987;BME280;10652;50.306;8.570;2023-11-18T00:51:15;98816.25;;;0.42;100.00
20987;BME280;10652;50.306;8.570;2023-11-18T00:55:17;98817.22;;;0.62;100.00
20987;BME280;10652;50.306;8.570;2023-11-18T00:59:20;98822.44;;;0.72;100.00
20987;BME280;10652;50.306;8.570;2023-11-18T01:03:22;98810.31;;;0.61;100.00
20987;BME280;10652;50.306;8.570;2023-11-18T01:07:24;98821.44;;;0.45;100.00
20987;BME280;10652;50.306;8.570;2023-11-18T01:11:26;98822.34;;;0.53;100.00
20987;BME280;10652;50.306;8.570;2023-11-18T01:15:28;98817.13;;;0.46;100.00
20987;BME280;10652;50.306;8.570;2023-11-18T01:19:31;98823.94;;;0.30;100.00
20987;BME280;10652;50.306;8.570;2023-11-18T01:23:38;98822.19;;;0.29;100.00
20987;BME280;10652;50.306;8.570;2023-11-18T01:27:40;98825.66;;;0.30;100.00
20987;BME280;10652;50.306;8.570;2023-11-18T01:31:43;98830.84;;;0.34;100.00
20987;BME280;10652;50.306;8.570;2023-11-18T01:35:54;98829.13;;;0.38;100.00
20987;BME280;10652;50.306;8.570;2023-11-18T01:39:57;98830.84;;;0.37;100.00
20987;BME280;10652;50.306;8.570;2023-11-18T01:43:59;98824.00;;;0.42;100.00
20987;BME280;10652;50.306;8.570;2023-11-18T01:48:01;98829.22;;;0.51;100.00
20987;BME280;10652;50.306;8.570;2023-11-18T01:52:04;98828.41;;;0.61;100.00
20987;BME280;10652;50.306;8.570;2023-11-18T01:56:09;98825.81;;;0.61;100.00
20987;BME280;10652;50.306;8.570;2023-11-18T02:00:13;98829.25;;;0.60;100.00
20987;BME280;10652;50.306;8.570;2023-11-18T02:04:20;98836.19;;;0.64;100.00
20987;BME280;10652;50.306;8.570;2023-11-18T02:08:23;98827.56;;;0.62;100.00
20987;BME280;10652;50.306;8.570;2023-11-18T02:12:30;98830.09;;;0.53;100.00
20987;BME280;10652;50.306;8.570;2023-11-18T02:16:38;98820.59;;;0.49;100.00
20987;BME280;10652;50.306;8.570;2023-11-18T02:20:43;98815.41;;;0.46;100.00
20987;BME280;10652;50.306;8.570;2023-11-18T02:24:45;98831.69;;;0.33;100.00
20987;BME280;10652;50.306;8.570;2023-11-18T02:28:48;98835.16;;;0.35;100.00
20987;BME280;10652;50.306;8.570;2023-11-18T02:32:56;98832.63;;;0.43;100.00
20987;BME280;10652;50.306;8.570;2023-11-18T02:37:02;98830.06;;;0.47;100.00
20987;BME280;10652;50.306;8.570;2023-11-18T02:41:11;98834.34;;;0.42;100.00
20987;BME280;10652;50.306;8.570;2023-11-18T02:45:14;98836.00;;;0.31;100.00
20987;BME280;10652;50.306;8.570;2023-11-18T02:49:19;98830.66;;;0.10;100.00
20987;BME280;10652;50.306;8.570;2023-11-18T02:53:21;98820.28;;;0.01;100.00
20987;BME280;10652;50.306;8.570;2023-11-18T02:57:23;98822.00;;;0.02;100.00
20987;BME280;10652;50.306;8.570;2023-11-18T03:01:25;98811.69;;;0.05;100.00
20987;BME280;10652;50.306;8.570;2023-11-18T03:05:30;98800.56;;;0.09;100.00
20987;BME280;10652;50.306;8.570;2023-11-18T03:09:33;98791.13;;;0.20;100.00
20987;BME280;10652;50.306;8.570;2023-11-18T03:13:37;98798.00;;;0.15;100.00
20987;BME280;10652;50.306;8.570;2023-11-18T03:17:39;98803.09;;;0.06;100.00
20987;BME280;10652;50.306;8.570;2023-11-18T03:21:42;98797.91;;;-0.00;100.00
20987;BME280;10652;50.306;8.570;2023-11-18T03:25:45;98794.44;;;-0.02;100.00
20987;BME280;10652;50.306;8.570;2023-11-18T03:29:48;98793.53;;;-0.09;100.00
20987;BME280;10652;50.306;8.570;2023-11-18T03:33:54;98790.06;;;-0.12;100.00
20987;BME280;10652;50.306;8.570;2023-11-18T03:37:56;98792.66;;;-0.14;100.00
20987;BME280;10652;50.306;8.570;2023-11-18T03:41:58;98796.06;;;-0.13;100.00
20987;BME280;10652;50.306;8.570;2023-11-18T03:46:01;98803.84;;;-0.10;100.00
20987;BME280;10652;50.306;8.570;2023-11-18T03:50:04;98816.81;;;-0.03;100.00
20987;BME280;10652;50.306;8.570;2023-11-18T03:54:07;98801.38;;;0.05;100.00
20987;BME280;10652;50.306;8.570;2023-11-18T03:58:14;98791.09;;;0.14;100.00
20987;BME280;10652;50.306;8.570;2023-11-18T04:02:16;98792.00;;;0.19;100.00
20987;BME280;10652;50.306;8.570;2023-11-18T04:06:18;98790.31;;;0.22;100.00
20987;BME280;10652;50.306;8.570;2023-11-18T04:10:20;98788.56;;;0.23;100.00
20987;BME280;10652;50.306;8.570;2023-11-18T04:14:22;98777.44;;;0.33;100.00
20987;BME280;10652;50.306;8.570;2023-11-18T04:18:25;98777.50;;;0.45;100.00
20987;BME280;10652;50.306;8.570;2023-11-18T04:22:27;98753.38;;;0.46;100.00
20987;BME280;10652;50.306;8.570;2023-11-18T04:26:29;98751.63;;;0.42;100.00
20987;BME280;10652;50.306;8.570;2023-11-18T04:30:31;98762.78;;;0.34;100.00
20987;BME280;10652;50.306;8.570;2023-11-18T04:34:37;98767.97;;;0.37;100.00
20987;BME280;10652;50.306;8.570;2023-11-18T04:38:39;98784.38;;;0.40;100.00
20987;BME280;10652;50.306;8.570;2023-11-18T04:42:42;98789.56;;;0.51;100.00
20987;BME280;10652;50.306;8.570;2023-11-18T04:46:46;98791.34;;;0.59;100.00
20987;BME280;10652;50.306;8.570;2023-11-18T04:50:48;98794.81;;;0.64;100.00
20987;BME280;10652;50.306;8.570;2023-11-18T04:54:50;98796.53;;;0.65;100.00
20987;BME280;10652;50.306;8.570;2023-11-18T04:58:52;98793.97;;;0.67;100.00
20987;BME280;10652;50.306;8.570;2023-11-18T05:02:57;98786.19;;;0.68;100.00
20987;BME280;10652;50.306;8.570;2023-11-18T05:06:59;98779.34;;;0.74;100.00
20987;BME280;10652;50.306;8.570;2023-11-18T05:11:02;98770.75;;;0.87;100.00
20987;BME280;10652;50.306;8.570;2023-11-18T05:15:07;98778.56;;;0.97;100.00
20987;BME280;10652;50.306;8.570;2023-11-18T05:19:09;98762.19;;;1.09;100.00
20987;BME280;10652;50.306;8.570;2023-11-18T05:23:12;98765.66;;;1.23;100.00
20987;BME280;10652;50.306;8.570;2023-11-18T05:27:14;98752.75;;;1.31;100.00
20987;BME280;10652;50.306;8.570;2023-11-18T05:31:17;98755.31;;;1.37;100.00
20987;BME280;10652;50.306;8.570;2023-11-18T05:35:19;98738.09;;;1.43;100.00
20987;BME280;10652;50.306;8.570;2023-11-18T05:39:21;98743.25;;;1.43;100.00
20987;BME280;10652;50.306;8.570;2023-11-18T05:43:31;98736.34;;;1.41;100.00
20987;BME280;10652;50.306;8.570;2023-11-18T05:47:42;98734.63;;;1.41;100.00
20987;BME280;10652;50.306;8.570;2023-11-18T05:51:44;98721.69;;;1.44;100.00
20987;BME280;10652;50.306;8.570;2023-11-18T05:55:47;98721.69;;;1.47;100.00
20987;BME280;10652;50.306;8.570;2023-11-18T05:59:49;98726.00;;;1.50;100.00
20987;BME280;10652;50.306;8.570;2023-11-18T06:03:51;98727.72;;;1.51;100.00
20987;BME280;10652;50.306;8.570;2023-11-18T06:07:53;98731.16;;;1.54;100.00
20987;BME280;10652;50.306;8.570;2023-11-18T06:11:55;98739.78;;;1.69;100.00
20987;BME280;10652;50.306;8.570;2023-11-18T06:15:57;98739.81;;;1.56;100.00
20987;BME280;10652;50.306;8.570;2023-11-18T06:20:01;98738.94;;;1.56;100.00
20987;BME280;10652;50.306;8.570;2023-11-18T06:24:03;98748.44;;;1.52;100.00
20987;BME280;10652;50.306;8.570;2023-11-18T06:28:08;98738.94;;;1.45;100.00
20987;BME280;10652;50.306;8.570;2023-11-18T06:32:10;98745.00;;;1.44;100.00
20987;BME280;10652;50.306;8.570;2023-11-18T06:40:16;98741.50;;;1.20;100.00
20987;BME280;10652;50.306;8.570;2023-11-18T06:44:21;98741.50;;;1.27;100.00
20987;BME280;10652;50.306;8.570;2023-11-18T06:48:26;98745.00;;;1.38;100.00
20987;BME280;10652;50.306;8.570;2023-11-18T06:52:28;98749.31;;;1.47;100.00
20987;BME280;10652;50.306;8.570;2023-11-18T06:56:30;98743.25;;;1.55;100.00
20987;BME280;10652;50.306;8.570;2023-11-18T07:00:32;98744.13;;;1.67;100.00
20987;BME280;10652;50.306;8.570;2023-11-18T07:04:34;98741.53;;;1.79;100.00
20987;BME280;10652;50.306;8.570;2023-11-18T07:08:37;98739.78;;;1.91;100.00
20987;BME280;10652;50.306;8.570;2023-11-18T07:12:39;98728.47;;;2.23;100.00
20987;BME280;10652;50.306;8.570;2023-11-18T07:16:41;98739.66;;;2.32;100.00
20987;BME280;10652;50.306;8.570;2023-11-18T07:20:44;98725.84;;;2.33;100.00
20987;BME280;10652;50.306;8.570;2023-11-18T07:24:47;98720.66;;;2.33;100.00
20987;BME280;10652;50.306;8.570;2023-11-18T07:28:49;98718.88;;;2.47;100.00
20987;BME280;10652;50.306;8.570;2023-11-18T07:32:51;98736.13;;;2.58;100.00
20987;BME280;10652;50.306;8.570;2023-11-18T07:36:53;98743.91;;;2.56;100.00
20987;BME280;10652;50.306;8.570;2023-11-18T07:40:57;98756.03;;;2.51;100.00
20987;BME280;10652;50.306;8.570;2023-11-18T07:45:03;98757.75;;;2.63;100.00
20987;BME280;10652;50.306;8.570;2023-11-18T07:49:05;98759.38;;;2.79;100.00
20987;BME280;10652;50.306;8.570;2023-11-18T07:53:08;98762.81;;;2.82;100.00
20987;BME280;10652;50.306;8.570;2023-11-18T07:57:10;98757.59;;;2.95;100.00
20987;BME280;10652;50.306;8.570;2023-11-18T08:01:14;98766.13;;;3.12;100.00
20987;BME280;10652;50.306;8.570;2023-11-18T08:05:18;98760.75;;;3.37;100.00
20987;BME280;10652;50.306;8.570;2023-11-18T08:09:21;98759.75;;;3.57;100.00
20987;BME280;10652;50.306;8.570;2023-11-18T08:13:27;98751.91;;;3.64;100.00
20987;BME280;10652;50.306;8.570;2023-11-18T08:17:29;98769.94;;;3.84;100.00
20987;BME280;10652;50.306;8.570;2023-11-18T08:21:32;98769.75;;;4.05;100.00
20987;BME280;10652;50.306;8.570;2023-11-18T08:25:35;98767.06;;;4.16;100.00
20987;BME280;10652;50.306;8.570;2023-11-18T08:29:41;98753.94;;;4.30;100.00
20987;BME280;10652;50.306;8.570;2023-11-18T08:33:44;98759.03;;;4.39;100.00
20987;BME280;10652;50.306;8.570;2023-11-18T08:37:48;98753.72;;;4.48;100.00
20987;BME280;10652;50.306;8.570;2023-11-18T08:41:50;98756.22;;;4.57;100.00
20987;BME280;10652;50.306;8.570;2023-11-18T08:45:52;98739.72;;;4.58;100.00
20987;BME280;10652;50.306;8.570;2023-11-18T08:49:54;98736.16;;;4.65;100.00
20987;BME280;10652;50.306;8.570;2023-11-18T08:53:57;98725.63;;;4.74;100.00
20987;BME280;10652;50.306;8.570;2023-11-18T08:58:00;98728.22;;;4.76;100.00
20987;BME280;10652;50.306;8.570;2023-11-18T09:02:05;98724.69;;;4.81;100.00
20987;BME280;10652;50.306;8.570;2023-11-18T09:06:10;98731.47;;;4.91;100.00
20987;BME280;10652;50.306;8.570;2023-11-18T09:10:28;98721.91;;;4.93;100.00
20987;BME280;10652;50.306;8.570;2023-11-18T09:14:30;98721.00;;;4.97;100.00
20987;BME280;10652;50.306;8.570;2023-11-18T09:18:36;98734.88;;;4.98;100.00
20987;BME280;10652;50.306;8.570;2023-11-18T09:22:43;98720.91;;;5.02;100.00
20987;BME280;10652;50.306;8.570;2023-11-18T09:26:46;98717.31;;;5.10;100.00
20987;BME280;10652;50.306;8.570;2023-11-18T09:30:52;98727.69;;;5.15;100.00
20987;BME280;10652;50.306;8.570;2023-11-18T09:34:59;98742.41;;;5.18;100.00
20987;BME280;10652;50.306;8.570;2023-11-18T09:39:10;98738.84;;;5.23;100.00
20987;BME280;10652;50.306;8.570;2023-11-18T09:43:31;98732.69;;;5.29;100.00
20987;BME280;10652;50.306;8.570;2023-11-18T09:47:51;98735.31;;;5.27;100.00
20987;BME280;10652;50.306;8.570;2023-11-18T09:51:57;98735.34;;;5.26;100.00
20987;BME280;10652;50.306;8.570;2023-11-18T09:56:10;98730.09;;;5.27;100.00
20987;BME280;10652;50.306;8.570;2023-11-18T10:00:20;98726.59;;;5.28;100.00
20987;BME280;10652;50.306;8.570;2023-11-18T10:04:28;98742.31;;;5.24;100.00
20987;BME280;10652;50.306;8.570;2023-11-18T10:08:31;98722.28;;;5.27;100.00
20987;BME280;10652;50.306;8.570;2023-11-18T10:12:33;98729.19;;;5.31;100.00
20987;BME280;10652;50.306;8.570;2023-11-18T10:16:40;98731.88;;;5.27;100.00
20987;BME280;10652;50.306;8.570;2023-11-18T10:20:45;98728.31;;;5.31;100.00
20987;BME280;10652;50.306;8.570;2023-11-18T10:24:47;98723.91;;;5.34;100.00
20987;BME280;10652;50.306;8.570;2023-11-18T10:28:51;98729.06;;;5.40;100.00
20987;BME280;10652;50.306;8.570;2023-11-18T10:33:00;98722.91;;;5.43;100.00
20987;BME280;10652;50.306;8.570;2023-11-18T10:37:09;98722.84;;;5.49;100.00
20987;BME280;10652;50.306;8.570;2023-11-18T10:41:13;98710.47;;;5.60;100.00
20987;BME280;10652;50.306;8.570;2023-11-18T10:45:23;98716.84;;;5.42;100.00
20987;BME280;10652;50.306;8.570;2023-11-18T10:49:28;98698.72;;;5.35;100.00
20987;BME280;10652;50.306;8.570;2023-11-18T10:53:31;98695.31;;;5.31;100.00
20987;BME280;10652;50.306;8.570;2023-11-18T10:57:34;98689.25;;;5.29;100.00
20987;BME280;10652;50.306;8.570;2023-11-18T11:01:37;98679.66;;;5.33;100.00
20987;BME280;10652;50.306;8.570;2023-11-18T11:05:45;98688.25;;;5.38;100.00
20987;BME280;10652;50.306;8.570;2023-11-18T11:09:47;98678.78;;;5.34;100.00
20987;BME280;10652;50.306;8.570;2023-11-18T11:14:00;98682.31;;;5.28;100.00
20987;BME280;10652;50.306;8.570;2023-11-18T11:18:08;98658.94;;;5.25;100.00
20987;BME280;10652;50.306;8.570;2023-11-18T11:22:18;98640.72;;;5.25;100.00
20987;BME280;10652;50.306;8.570;2023-11-18T11:26:33;98653.66;;;5.28;100.00
20987;BME280;10652;50.306;8.570;2023-11-18T11:30:46;98641.59;;;5.23;100.00
20987;BME280;10652;50.306;8.570;2023-11-18T11:34:56;98627.75;;;5.22;100.00
20987;BME280;10652;50.306;8.570;2023-11-18T11:38:59;98618.22;;;5.18;100.00
20987;BME280;10652;50.306;8.570;2023-11-18T11:43:06;98607.81;;;5.20;100.00
20987;BME280;10652;50.306;8.570;2023-11-18T11:47:11;98610.41;;;5.20;100.00
20987;BME280;10652;50.306;8.570;2023-11-18T11:55:38;98590.75;;;5.02;100.00
20987;BME280;10652;50.306;8.570;2023-11-18T12:03:54;98564.84;;;4.93;100.00
20987;BME280;10652;50.306;8.570;2023-11-18T12:08:00;98570.91;;;4.93;100.00
20987;BME280;10652;50.306;8.570;2023-11-18T12:12:02;98568.34;;;4.92;100.00
20987;BME280;10652;50.306;8.570;2023-11-18T12:16:06;98557.91;;;4.92;100.00
20987;BME280;10652;50.306;8.570;2023-11-18T12:20:38;98548.44;;;4.89;100.00
20987;BME280;10652;50.306;8.570;2023-11-18T12:28:59;98548.47;;;4.86;100.00
20987;BME280;10652;50.306;8.570;2023-11-18T12:33:07;98559.72;;;4.90;100.00
20987;BME280;10652;50.306;8.570;2023-11-18T12:41:37;98543.16;;;4.92;100.00
20987;BME280;10652;50.306;8.570;2023-11-18T12:45:43;98529.34;;;4.90;100.00
20987;BME280;10652;50.306;8.570;2023-11-18T12:49:46;98531.09;;;4.88;100.00
20987;BME280;10652;50.306;8.570;2023-11-18T12:54:07;98525.72;;;4.97;100.00
20987;BME280;10652;50.306;8.570;2023-11-18T12:58:10;98505.78;;;4.96;100.00
20987;BME280;10652;50.306;8.570;2023-11-18T13:02:13;98497.09;;;4.97;100.00
20987;BME280;10652;50.306;8.570;2023-11-18T13:06:21;98506.50;;;5.04;100.00
20987;BME280;10652;50.306;8.570;2023-11-18T13:10:27;98492.50;;;5.11;100.00
20987;BME280;10652;50.306;8.570;2023-11-18T13:14:32;98484.59;;;5.16;100.00
20987;BME280;10652;50.306;8.570;2023-11-18T13:18:45;98474.97;;;5.20;100.00
20987;BME280;10652;50.306;8.570;2023-11-18T13:22:49;98469.78;;;5.20;100.00
20987;BME280;10652;50.306;8.570;2023-11-18T13:26:51;98483.66;;;5.19;100.00
20987;BME280;10652;50.306;8.570;2023-11-18T13:30:54;98474.91;;;5.23;100.00
20987;BME280;10652;50.306;8.570;2023-11-18T13:34:56;98468.88;;;5.22;100.00
20987;BME280;10652;50.306;8.570;2023-11-18T13:38:58;98470.53;;;5.25;100.00
20987;BME280;10652;50.306;8.570;2023-11-18T13:43:03;98471.34;;;5.28;100.00
20987;BME280;10652;50.306;8.570;2023-11-18T13:47:10;98456.47;;;5.33;100.00
20987;BME280;10652;50.306;8.570;2023-11-18T13:51:16;98452.97;;;5.36;100.00
20987;BME280;10652;50.306;8.570;2023-11-18T13:55:19;98452.13;;;5.34;100.00
20987;BME280;10652;50.306;8.570;2023-11-18T13:59:34;98440.84;;;5.35;100.00
20987;BME280;10652;50.306;8.570;2023-11-18T14:03:37;98448.50;;;5.41;100.00
20987;BME280;10652;50.306;8.570;2023-11-18T14:07:39;98446.75;;;5.43;100.00
20987;BME280;10652;50.306;8.570;2023-11-18T14:11:41;98437.97;;;5.47;100.00
20987;BME280;10652;50.306;8.570;2023-11-18T14:15:44;98418.84;;;5.48;100.00
20987;BME280;10652;50.306;8.570;2023-11-18T14:19:47;98400.69;;;5.45;100.00
20987;BME280;10652;50.306;8.570;2023-11-18T14:23:49;98379.97;;;5.39;100.00
20987;BME280;10652;50.306;8.570;2023-11-18T14:27:52;98403.47;;;5.36;100.00
20987;BME280;10652;50.306;8.570;2023-11-18T14:31:55;98419.91;;;5.39;100.00
20987;BME280;10652;50.306;8.570;2023-11-18T14:35:57;98431.09;;;5.43;100.00
20987;BME280;10652;50.306;8.570;2023-11-18T14:39:59;98414.53;;;5.45;100.00
20987;BME280;10652;50.306;8.570;2023-11-18T14:44:02;98402.34;;;5.47;100.00
20987;BME280;10652;50.306;8.570;2023-11-18T14:48:06;98400.50;;;5.52;100.00
20987;BME280;10652;50.306;8.570;2023-11-18T14:52:09;98389.16;;;5.55;100.00
20987;BME280;10652;50.306;8.570;2023-11-18T14:56:11;98385.75;;;5.53;100.00
20987;BME280;10652;50.306;8.570;2023-11-18T15:00:13;98367.50;;;5.53;100.00
20987;BME280;10652;50.306;8.570;2023-11-18T15:04:24;98367.50;;;5.53;100.00
20987;BME280;10652;50.306;8.570;2023-11-18T15:08:26;98359.69;;;5.53;100.00
20987;BME280;10652;50.306;8.570;2023-11-18T15:12:29;98353.63;;;5.52;100.00
20987;BME280;10652;50.306;8.570;2023-11-18T15:16:32;98352.00;;;5.47;100.00
20987;BME280;10652;50.306;8.570;2023-11-18T15:20:35;98334.75;;;5.41;100.00
20987;BME280;10652;50.306;8.570;2023-11-18T15:24:37;98329.44;;;5.46;100.00
20987;BME280;10652;50.306;8.570;2023-11-18T15:28:39;98318.13;;;5.47;100.00
20987;BME280;10652;50.306;8.570;2023-11-18T15:32:42;98316.41;;;5.46;100.00
20987;BME280;10652;50.306;8.570;2023-11-18T15:36:45;98318.03;;;5.50;100.00
20987;BME280;10652;50.306;8.570;2023-11-18T15:40:48;98311.91;;;5.52;100.00
20987;BME280;10652;50.306;8.570;2023-11-18T15:44:53;98301.50;;;5.52;100.00
20987;BME280;10652;50.306;8.570;2023-11-18T15:48:58;98278.16;;;5.48;100.00
20987;BME280;10652;50.306;8.570;2023-11-18T15:53:01;98279.94;;;5.46;100.00
20987;BME280;10652;50.306;8.570;2023-11-18T15:57:03;98269.66;;;5.40;100.00
20987;BME280;10652;50.306;8.570;2023-11-18T16:01:05;98260.13;;;5.39;100.00
20987;BME280;10652;50.306;8.570;2023-11-18T16:05:09;98242.75;;;5.39;100.00
20987;BME280;10652;50.306;8.570;2023-11-18T16:09:11;98246.13;;;5.43;100.00
20987;BME280;10652;50.306;8.570;2023-11-18T16:13:13;98246.13;;;5.44;100.00
20987;BME280;10652;50.306;8.570;2023-11-18T16:17:16;98241.78;;;5.43;100.00
20987;BME280;10652;50.306;8.570;2023-11-18T16:21:18;98233.03;;;5.46;100.00
20987;BME280;10652;50.306;8.570;2023-11-18T16:25:22;98217.34;;;5.49;100.00
20987;BME280;10652;50.306;8.570;2023-11-18T16:29:25;98210.50;;;5.45;100.00
20987;BME280;10652;50.306;8.570;2023-11-18T16:33:27;98184.50;;;5.42;100.00
20987;BME280;10652;50.306;8.570;2023-11-18T16:37:32;98176.69;;;5.42;100.00
20987;BME280;10652;50.306;8.570;2023-11-18T16:41:34;98146.47;;;5.35;100.00
20987;BME280;10652;50.306;8.570;2023-11-18T16:45:46;98124.88;;;5.31;100.00
20987;BME280;10652;50.306;8.570;2023-11-18T16:49:51;98122.53;;;5.21;100.00
20987;BME280;10652;50.306;8.570;2023-11-18T16:54:05;98107.03;;;5.14;100.00
20987;BME280;10652;50.306;8.570;2023-11-18T16:58:07;98100.19;;;5.10;100.00
20987;BME280;10652;50.306;8.570;2023-11-18T17:02:09;98097.72;;;5.04;100.00
20987;BME280;10652;50.306;8.570;2023-11-18T17:06:11;98081.41;;;4.99;100.00
20987;BME280;10652;50.306;8.570;2023-11-18T17:10:16;98106.59;;;4.97;100.00
20987;BME280;10652;50.306;8.570;2023-11-18T17:14:19;98114.50;;;4.94;100.00
20987;BME280;10652;50.306;8.570;2023-11-18T17:18:21;98108.34;;;4.97;100.00
20987;BME280;10652;50.306;8.570;2023-11-18T17:22:23;98101.78;;;5.18;100.00
20987;BME280;10652;50.306;8.570;2023-11-18T17:26:27;98080.06;;;5.51;100.00
20987;BME280;10652;50.306;8.570;2023-11-18T17:30:29;98094.28;;;6.02;100.00
20987;BME280;10652;50.306;8.570;2023-11-18T17:34:36;98092.06;;;6.20;100.00
20987;BME280;10652;50.306;8.570;2023-11-18T17:38:38;98092.06;;;6.20;100.00
20987;BME280;10652;50.306;8.570;2023-11-18T17:42:42;98089.97;;;6.01;100.00
20987;BME280;10652;50.306;8.570;2023-11-18T17:46:44;98072.22;;;5.83;100.00
20987;BME280;10652;50.306;8.570;2023-11-18T17:50:47;98066.72;;;5.63;100.00
20987;BME280;10652;50.306;8.570;2023-11-18T17:54:49;98062.66;;;5.53;100.00
20987;BME280;10652;50.306;8.570;2023-11-18T17:58:51;98054.88;;;5.51;100.00
20987;BME280;10652;50.306;8.570;2023-11-18T18:02:54;98053.25;;;5.47;100.00
20987;BME280;10652;50.306;8.570;2023-11-18T18:06:59;98045.53;;;5.43;100.00
20987;BME280;10652;50.306;8.570;2023-11-18T18:11:01;98025.72;;;5.37;100.00
20987;BME280;10652;50.306;8.570;2023-11-18T18:15:05;98015.53;;;5.28;100.00
20987;BME280;10652;50.306;8.570;2023-11-18T18:19:10;98006.22;;;5.20;100.00
20987;BME280;10652;50.306;8.570;2023-11-18T18:23:12;98015.97;;;5.13;100.00
20987;BME280;10652;50.306;8.570;2023-11-18T18:27:14;98029.00;;;5.11;100.00
20987;BME280;10652;50.306;8.570;2023-11-18T18:31:17;98018.69;;;5.08;100.00
20987;BME280;10652;50.306;8.570;2023-11-18T18:35:19;98028.19;;;5.09;100.00
20987;BME280;10652;50.306;8.570;2023-11-18T18:39:21;98033.47;;;5.06;100.00
20987;BME280;10652;50.306;8.570;2023-11-18T18:43:24;98012.56;;;5.09;100.00
20987;BME280;10652;50.306;8.570;2023-11-18T18:47:26;97995.25;;;5.08;100.00
20987;BME280;10652;50.306;8.570;2023-11-18T18:51:31;97992.47;;;5.14;100.00
20987;BME280;10652;50.306;8.570;2023-11-18T18:55:35;97986.47;;;5.12;100.00
20987;BME280;10652;50.306;8.570;2023-11-18T18:59:39;97966.44;;;5.14;100.00
20987;BME280;10652;50.306;8.570;2023-11-18T19:03:41;97972.53;;;5.13;100.00
20987;BME280;10652;50.306;8.570;2023-11-18T19:07:43;97967.38;;;5.12;100.00
20987;BME280;10652;50.306;8.570;2023-11-18T19:11:48;97959.59;;;5.10;100.00
20987;BME280;10652;50.306;8.570;2023-11-18T19:15:50;97971.69;;;5.13;100.00
20987;BME280;10652;50.306;8.570;2023-11-18T19:19:54;97962.84;;;5.19;100.00
20987;BME280;10652;50.306;8.570;2023-11-18T19:23:57;97950.69;;;5.19;100.00
20987;BME280;10652;50.306;8.570;2023-11-18T19:27:59;97950.69;;;5.19;100.00
20987;BME280;10652;50.306;8.570;2023-11-18T19:32:02;97948.94;;;5.20;100.00
20987;BME280;10652;50.306;8.570;2023-11-18T19:36:04;97952.44;;;5.19;100.00
20987;BME280;10652;50.306;8.570;2023-11-18T19:40:09;97945.44;;;5.21;100.00
20987;BME280;10652;50.306;8.570;2023-11-18T19:44:13;97907.97;;;5.26;100.00
20987;BME280;10652;50.306;8.570;2023-11-18T19:48:15;97889.56;;;5.32;100.00
20987;BME280;10652;50.306;8.570;2023-11-18T19:52:17;97906.13;;;5.30;100.00
20987;BME280;10652;50.306;8.570;2023-11-18T19:56:20;97905.03;;;5.37;100.00
20987;BME280;10652;50.306;8.570;2023-11-18T20:00:23;97898.91;;;5.39;100.00
20987;BME280;10652;50.306;8.570;2023-11-18T20:04:28;97900.53;;;5.43;100.00
20987;BME280;10652;50.306;8.570;2023-11-18T20:08:32;97884.88;;;5.45;100.00
20987;BME280;10652;50.306;8.570;2023-11-18T20:12:34;97895.19;;;5.48;100.00
20987;BME280;10652;50.306;8.570;2023-11-18T20:16:36;97918.63;;;5.48;100.00
20987;BME280;10652;50.306;8.570;2023-11-18T20:20:39;97914.19;;;5.51;100.00
20987;BME280;10652;50.306;8.570;2023-11-18T20:24:41;97905.44;;;5.54;100.00
20987;BME280;10652;50.306;8.570;2023-11-18T20:28:44;97906.22;;;5.56;100.00
20987;BME280;10652;50.306;8.570;2023-11-18T20:32:47;97892.22;;;5.60;100.00
20987;BME280;10652;50.306;8.570;2023-11-18T20:36:50;97877.47;;;5.59;100.00
20987;BME280;10652;50.306;8.570;2023-11-18T20:40:52;97883.53;;;5.59;100.00
20987;BME280;10652;50.306;8.570;2023-11-18T20:44:54;97883.50;;;5.61;100.00
20987;BME280;10652;50.306;8.570;2023-11-18T20:48:56;97871.28;;;5.63;100.00
20987;BME280;10652;50.306;8.570;2023-11-18T20:52:59;97861.69;;;5.64;100.00
20987;BME280;10652;50.306;8.570;2023-11-18T20:57:01;97854.13;;;5.56;100.00
20987;BME280;10652;50.306;8.570;2023-11-18T21:01:04;97858.47;;;5.55;100.00
20987;BME280;10652;50.306;8.570;2023-11-18T21:05:07;97843.69;;;5.56;100.00
20987;BME280;10652;50.306;8.570;2023-11-18T21:09:14;97842.81;;;5.57;100.00
20987;BME280;10652;50.306;8.570;2023-11-18T21:13:16;97827.88;;;5.62;100.00
20987;BME280;10652;50.306;8.570;2023-11-18T21:17:18;97824.31;;;5.65;100.00
20987;BME280;10652;50.306;8.570;2023-11-18T21:21:26;97816.47;;;5.66;100.00
20987;BME280;10652;50.306;8.570;2023-11-18T21:25:28;97801.53;;;5.71;100.00
20987;BME280;10652;50.306;8.570;2023-11-18T21:29:32;97804.19;;;5.70;100.00
20987;BME280;10652;50.306;8.570;2023-11-18T21:33:34;97795.50;;;5.69;100.00
20987;BME280;10652;50.306;8.570;2023-11-18T21:37:40;97797.19;;;5.72;100.00
20987;BME280;10652;50.306;8.570;2023-11-18T21:41:42;97788.72;;;5.91;100.00
20987;BME280;10652;50.306;8.570;2023-11-18T21:45:45;97794.66;;;5.95;100.00
20987;BME280;10652;50.306;8.570;2023-11-18T21:49:47;97784.50;;;5.87;100.00
20987;BME280;10652;50.306;8.570;2023-11-18T21:53:53;97782.72;;;5.89;100.00